• Join FlightAware (Why Join?)
  • Login
  • US Flag 
07:53PM EDT


 

Airport Tracker/Info


-or-


 

Live Flight TrackerFlight Track Log ✈ ASQ5421 ✈ 25-Apr-2013 ✈ KGNV - KATL

Flight Track Log - Related Links

Times and Time Zones

All times are in EDT time to prevent confusion due to time zone crossing. See the ASQ5421 flight status page for this flight to view local times or setup timezone preferences in your user account.

Time Position Orientation Groundspeed Altitude Reporting Facility
EDT Latitude Longitude Course Direction KTS MPH feet Rate Location/Type
11:58AM 29.6908 -82.2828 282° West 155 178 500  Level Jacksonville Center
11:59AM 29.6994 -82.3306 282° West 182 209 2,100 1,560 Climbing Jacksonville Center
12:00PM 29.7081 -82.4000 278° West 248 285 3,200 2,100 Climbing Jacksonville Center
12:01PM 29.7458 -82.4547 308° West 281 323 6,200 2,640 Climbing Jacksonville Center
12:02PM 29.7650 -82.5383 285° West 286 329 8,500 2,160 Climbing Jacksonville Center
12:03PM 29.7819 -82.6269 282° West 281 323 10,600 1,500 Climbing Jacksonville Center
12:04PM 29.8592 -82.6867 326° Northwest 279 321 11,600 900 Climbing Jacksonville Center
12:05PM 29.9553 -82.7153 346° North 331 381 12,500 1,020 Climbing Jacksonville Center
12:06PM 30.0556 -82.6861 14° North 343 395 13,700 960 Climbing Jacksonville Center
12:07PM 30.1597 -82.6547 15° North 356 410 14,500 780 Climbing Jacksonville Center
12:08PM 30.2703 -82.6256 13° North 375 432 15,300 780 Climbing Jacksonville Center
12:09PM 30.3811 -82.5892 16° North 391 450 16,100 720 Climbing Jacksonville Center
12:11PM 30.6106 -82.5497 North 407 468 17,600 600 Climbing Jacksonville Center
12:12PM 30.7253 -82.5447 North 412 474 18,000 480 Climbing Jacksonville Center
12:13PM 30.8403 -82.5417 North 412 474 18,600 480 Climbing Jacksonville Center
12:14PM 30.9614 -82.5342 North 412 474 19,000 300 Climbing Jacksonville Center
12:15PM 31.0825 -82.5311 North 424 488 19,300 360 Climbing Jacksonville Center
12:16PM 31.2056 -82.5258 North 430 495 19,800 480 Climbing Jacksonville Center
12:17PM 31.3244 -82.5181 North 430 495 20,300 420 Climbing Jacksonville Center
12:18PM 31.4372 -82.5128 North 441 507 20,700 420 Climbing Jacksonville Center
12:19PM 31.5583 -82.5147 359° North 436 502 21,200 480 Climbing Jacksonville Center
12:20PM 31.6714 -82.5508 345° North 431 496 21,700 480 Climbing Jacksonville Center
12:22PM 31.8992 -82.6200 346° North 416 479 22,700 480 Climbing Atlanta Center
12:23PM 32.0103 -82.6575 344° North 416 479 23,200 480 Climbing Atlanta Center
12:24PM 32.1253 -82.6925 346° North 421 484 23,700 360 Climbing Atlanta Center
12:25PM 32.2386 -82.7300 344° North 421 484 24,000 120 Climbing Atlanta Center
12:26PM 32.3536 -82.7653 345° North 421 484 24,000  Level Atlanta Center
12:27PM 32.4606 -82.7981 346° North 415 478 24,000  Level Atlanta Center
12:28PM 32.5592 -82.8486 337° Northwest 370 426 24,000  Level Atlanta Center
12:29PM 32.6203 -82.9389 309° West 345 397 24,000  Level Atlanta Center
12:30PM 32.6797 -83.0244 310° West 355 409 24,000  Level Atlanta Center
12:31PM 32.7472 -83.1200 310° West 367 422 24,000 -660 Level Atlanta Center
12:32PM 32.8189 -83.2306 308° West 379 436 22,700 -1,500 Descending Atlanta Center
12:33PM 32.8800 -83.3142 311° West 379 436 21,100 -1,740 Descending Atlanta Center
12:34PM 32.9389 -83.4028 308° West 364 419 19,300 -1,680 Descending Atlanta Center
12:35PM 33.0019 -83.4914 310° West 358 412 17,800 -1,800 Descending Atlanta Center
12:36PM 33.0711 -83.5903 310° West 347 399 15,700 -2,040 Descending Atlanta Center
12:37PM 33.1258 -83.6767 307° West 342 394 13,800 -1,860 Descending Atlanta Center
12:37PM 33.1500 -83.7000 321° Northwest 327 376 13,300 -1,320 Descending Atlanta TRACON
12:38PM 33.2000 -83.8000 301° West 322 371 12,000 -1,020 Descending Atlanta TRACON
12:39PM 33.2667 -83.8500 328° Northwest 334 384 11,300 -960 Descending Atlanta TRACON
12:40PM 33.3142 -83.8897 325° Northwest 320 368 10,500 -780 Descending Atlanta Center
12:41PM 33.3892 -83.9319 335° Northwest 315 362 10,000 -1,200 Descending Atlanta Center
12:42PM 33.4686 -83.9442 353° North 283 326 8,100 -1,200 Descending Atlanta Center
12:43PM 33.5394 -83.9592 350° North 261 300 7,700 -600 Descending Atlanta Center
12:44PM 33.5958 -83.9764 346° North 222 255 7,000 -360 Descending Atlanta Center
12:45PM 33.6189 -84.0464 292° West 187 215 7,000 -780 Level Atlanta Center
12:46PM 33.6333 -84.1500 280° West 226 260 5,200 -1,200 Descending Atlanta TRACON
12:47PM 33.6333 -84.2167 270° West 217 250 4,200 -1,020 Descending Atlanta TRACON
12:48PM 33.6333 -84.2833 270° West 189 217 3,200 -960 Descending Atlanta TRACON
12:49PM 33.6333 -84.3333 270° West 164 189 2,300 -900 Descending Atlanta TRACON
12:50PM 33.6333 -84.3833 270° West 142 163 1,500 -840 Descending Atlanta TRACON
12:52PM 33.6333 -84.4167 270° West  Level FlightAware Approximate
12:59PM 33.6367 -84.4279 270° West  Level Estimated